sensor_id;sensor_type;location;lat;lon;timestamp;pressure;altitude;pressure_sealevel;temperature;humidity
48530;BME280;34927;37.302;-121.982;2022-09-03T00:00:54;100361.0;;;28.95;35.39
48530;BME280;34927;37.302;-121.982;2022-09-03T00:02:06;100360.0;;;28.97;35.36
48530;BME280;34927;37.302;-121.982;2022-09-03T00:03:17;100362.0;;;28.98;35.27
48530;BME280;34927;37.302;-121.982;2022-09-03T00:04:27;100361.0;;;29.00;35.29
48530;BME280;34927;37.302;-121.982;2022-09-03T00:05:36;100364.0;;;28.99;35.33
48530;BME280;34927;37.302;-121.982;2022-09-03T00:06:47;100365.0;;;29.03;35.32
48530;BME280;34927;37.302;-121.982;2022-09-03T00:07:56;100365.0;;;29.06;35.34
48530;BME280;34927;37.302;-121.982;2022-09-03T00:09:05;100364.0;;;29.08;35.25
48530;BME280;34927;37.302;-121.982;2022-09-03T00:10:15;100364.0;;;29.15;35.28
48530;BME280;34927;37.302;-121.982;2022-09-03T00:11:31;100362.0;;;29.21;35.26
48530;BME280;34927;37.302;-121.982;2022-09-03T00:12:39;100365.0;;;29.28;35.13
48530;BME280;34927;37.302;-121.982;2022-09-03T00:13:51;100365.0;;;29.22;35.08
48530;BME280;34927;37.302;-121.982;2022-09-03T00:15:02;100366.0;;;29.36;35.08
48530;BME280;34927;37.302;-121.982;2022-09-03T00:16:10;100366.0;;;29.38;34.98
48530;BME280;34927;37.302;-121.982;2022-09-03T00:17:20;100368.0;;;29.42;34.97
48530;BME280;34927;37.302;-121.982;2022-09-03T00:18:30;100369.0;;;29.42;34.89
48530;BME280;34927;37.302;-121.982;2022-09-03T00:19:40;100368.0;;;29.50;34.92
48530;BME280;34927;37.302;-121.982;2022-09-03T00:20:51;100368.0;;;29.49;34.87
48530;BME280;34927;37.302;-121.982;2022-09-03T00:21:59;100368.0;;;29.59;34.79
48530;BME280;34927;37.302;-121.982;2022-09-03T00:23:09;100367.0;;;29.62;34.76
48530;BME280;34927;37.302;-121.982;2022-09-03T00:24:18;100367.0;;;29.67;34.75
48530;BME280;34927;37.302;-121.982;2022-09-03T00:25:32;100369.0;;;29.72;34.69
48530;BME280;34927;37.302;-121.982;2022-09-03T00:26:37;100372.0;;;29.73;34.70
48530;BME280;34927;37.302;-121.982;2022-09-03T00:27:43;100372.0;;;29.73;34.74
48530;BME280;34927;37.302;-121.982;2022-09-03T00:28:52;100373.0;;;29.75;34.91
48530;BME280;34927;37.302;-121.982;2022-09-03T00:29:58;100373.0;;;29.75;34.93
48530;BME280;34927;37.302;-121.982;2022-09-03T00:31:10;100371.0;;;29.77;34.99
48530;BME280;34927;37.302;-121.982;2022-09-03T00:32:19;100371.0;;;29.73;35.07
48530;BME280;34927;37.302;-121.982;2022-09-03T00:33:29;100368.0;;;29.75;35.01
48530;BME280;34927;37.302;-121.982;2022-09-03T00:34:39;100370.0;;;29.66;34.95
48530;BME280;34927;37.302;-121.982;2022-09-03T00:35:50;100371.0;;;29.52;35.21
48530;BME280;34927;37.302;-121.982;2022-09-03T00:36:57;100372.0;;;29.54;35.28
48530;BME280;34927;37.302;-121.982;2022-09-03T00:38:02;100372.0;;;29.55;35.35
48530;BME280;34927;37.302;-121.982;2022-09-03T00:39:09;100375.0;;;29.64;35.35
48530;BME280;34927;37.302;-121.982;2022-09-03T00:40:21;100376.0;;;29.61;35.34
48530;BME280;34927;37.302;-121.982;2022-09-03T00:41:36;100377.0;;;29.65;35.43
48530;BME280;34927;37.302;-121.982;2022-09-03T00:42:49;100376.0;;;29.58;35.48
48530;BME280;34927;37.302;-121.982;2022-09-03T00:44:10;100380.0;;;29.59;35.47
48530;BME280;34927;37.302;-121.982;2022-09-03T00:45:24;100381.0;;;29.50;35.58
48530;BME280;34927;37.302;-121.982;2022-09-03T00:46:38;100381.0;;;29.52;35.63
48530;BME280;34927;37.302;-121.982;2022-09-03T00:47:57;100379.0;;;29.58;35.62
48530;BME280;34927;37.302;-121.982;2022-09-03T00:49:16;100378.0;;;29.56;35.68
48530;BME280;34927;37.302;-121.982;2022-09-03T00:50:35;100381.0;;;29.56;35.70
48530;BME280;34927;37.302;-121.982;2022-09-03T00:51:49;100381.0;;;29.52;35.86
48530;BME280;34927;37.302;-121.982;2022-09-03T00:53:02;100379.0;;;29.51;35.84
48530;BME280;34927;37.302;-121.982;2022-09-03T00:54:19;100380.0;;;29.55;35.88
48530;BME280;34927;37.302;-121.982;2022-09-03T00:55:34;100383.0;;;29.52;35.84
48530;BME280;34927;37.302;-121.982;2022-09-03T00:56:49;100382.0;;;29.50;35.90
48530;BME280;34927;37.302;-121.982;2022-09-03T00:58:10;100384.0;;;29.45;36.09
48530;BME280;34927;37.302;-121.982;2022-09-03T00:59:27;100384.0;;;29.39;36.17
48530;BME280;34927;37.302;-121.982;2022-09-03T01:00:38;100388.0;;;29.45;36.06
48530;BME280;34927;37.302;-121.982;2022-09-03T01:01:54;100388.0;;;29.37;36.24
48530;BME280;34927;37.302;-121.982;2022-09-03T01:03:05;100385.0;;;29.20;36.57
48530;BME280;34927;37.302;-121.982;2022-09-03T01:04:24;100387.0;;;29.20;36.57
48530;BME280;34927;37.302;-121.982;2022-09-03T01:05:40;100388.0;;;29.14;36.67
48530;BME280;34927;37.302;-121.982;2022-09-03T01:06:52;100389.0;;;29.18;36.61
48530;BME280;34927;37.302;-121.982;2022-09-03T01:08:15;100387.0;;;29.15;36.63
48530;BME280;34927;37.302;-121.982;2022-09-03T01:09:32;100390.0;;;29.13;36.68
48530;BME280;34927;37.302;-121.982;2022-09-03T01:10:48;100390.0;;;29.17;36.66
48530;BME280;34927;37.302;-121.982;2022-09-03T01:12:02;100390.0;;;29.14;36.66
48530;BME280;34927;37.302;-121.982;2022-09-03T01:13:15;100390.0;;;29.11;36.76
48530;BME280;34927;37.302;-121.982;2022-09-03T01:14:30;100391.0;;;29.19;36.37
48530;BME280;34927;37.302;-121.982;2022-09-03T01:15:47;100393.0;;;29.09;36.61
48530;BME280;34927;37.302;-121.982;2022-09-03T01:17:00;100394.0;;;29.04;36.68
48530;BME280;34927;37.302;-121.982;2022-09-03T01:18:14;100393.0;;;29.01;36.35
48530;BME280;34927;37.302;-121.982;2022-09-03T01:19:37;100392.0;;;28.96;36.42
48530;BME280;34927;37.302;-121.982;2022-09-03T01:20:59;100394.0;;;29.04;36.11
48530;BME280;34927;37.302;-121.982;2022-09-03T01:22:27;100398.0;;;28.89;36.40
48530;BME280;34927;37.302;-121.982;2022-09-03T01:24:00;100396.0;;;28.91;36.29
48530;BME280;34927;37.302;-121.982;2022-09-03T01:25:14;100396.0;;;28.91;36.14
48530;BME280;34927;37.302;-121.982;2022-09-03T01:26:29;100400.0;;;28.91;36.07
48530;BME280;34927;37.302;-121.982;2022-09-03T01:27:44;100399.0;;;28.96;36.03
48530;BME280;34927;37.302;-121.982;2022-09-03T01:29:02;100400.0;;;28.92;35.84
48530;BME280;34927;37.302;-121.982;2022-09-03T01:30:08;100400.0;;;28.93;35.87
48530;BME280;34927;37.302;-121.982;2022-09-03T01:31:20;100398.0;;;28.90;35.91
48530;BME280;34927;37.302;-121.982;2022-09-03T01:32:36;100400.0;;;28.89;35.67
48530;BME280;34927;37.302;-121.982;2022-09-03T01:33:50;100405.0;;;28.93;35.79
48530;BME280;34927;37.302;-121.982;2022-09-03T01:35:02;100402.0;;;28.95;35.66
48530;BME280;34927;37.302;-121.982;2022-09-03T01:36:13;100403.0;;;28.81;35.51
48530;BME280;34927;37.302;-121.982;2022-09-03T01:37:30;100404.0;;;28.81;35.62
48530;BME280;34927;37.302;-121.982;2022-09-03T01:38:40;100404.0;;;28.71;35.66
48530;BME280;34927;37.302;-121.982;2022-09-03T01:40:01;100407.0;;;28.79;35.53
48530;BME280;34927;37.302;-121.982;2022-09-03T01:41:12;100408.0;;;28.81;35.40
48530;BME280;34927;37.302;-121.982;2022-09-03T01:42:28;100410.0;;;28.80;35.53
48530;BME280;34927;37.302;-121.982;2022-09-03T01:43:41;100413.0;;;28.80;35.53
48530;BME280;34927;37.302;-121.982;2022-09-03T01:46:16;100415.0;;;28.76;35.41
48530;BME280;34927;37.302;-121.982;2022-09-03T01:47:29;100420.0;;;28.66;35.47
48530;BME280;34927;37.302;-121.982;2022-09-03T01:48:44;100423.0;;;28.67;35.67
48530;BME280;34927;37.302;-121.982;2022-09-03T01:49:55;100425.0;;;28.68;35.79
48530;BME280;34927;37.302;-121.982;2022-09-03T01:51:15;100426.0;;;28.64;35.85
48530;BME280;34927;37.302;-121.982;2022-09-03T01:52:28;100426.0;;;28.68;35.88
48530;BME280;34927;37.302;-121.982;2022-09-03T01:54:05;100425.0;;;28.56;36.08
48530;BME280;34927;37.302;-121.982;2022-09-03T01:55:22;100423.0;;;28.59;35.97
48530;BME280;34927;37.302;-121.982;2022-09-03T01:56:44;100420.0;;;28.62;35.93
48530;BME280;34927;37.302;-121.982;2022-09-03T01:57:56;100419.0;;;28.62;35.92
48530;BME280;34927;37.302;-121.982;2022-09-03T01:59:05;100418.0;;;28.58;36.05
48530;BME280;34927;37.302;-121.982;2022-09-03T02:00:13;100416.0;;;28.51;36.24
48530;BME280;34927;37.302;-121.982;2022-09-03T02:01:26;100416.0;;;28.48;36.32
48530;BME280;34927;37.302;-121.982;2022-09-03T02:02:31;100414.0;;;28.51;36.36
48530;BME280;34927;37.302;-121.982;2022-09-03T02:03:38;100415.0;;;28.46;36.63
48530;BME280;34927;37.302;-121.982;2022-09-03T02:04:58;100416.0;;;28.46;36.54
48530;BME280;34927;37.302;-121.982;2022-09-03T02:06:02;100418.0;;;28.48;36.41
48530;BME280;34927;37.302;-121.982;2022-09-03T02:07:06;100419.0;;;28.41;36.63
48530;BME280;34927;37.302;-121.982;2022-09-03T02:08:11;100421.0;;;28.44;36.83
48530;BME280;34927;37.302;-121.982;2022-09-03T02:09:17;100422.0;;;28.38;36.87
48530;BME280;34927;37.302;-121.982;2022-09-03T02:10:24;100422.0;;;28.36;37.03
48530;BME280;34927;37.302;-121.982;2022-09-03T02:11:32;100425.0;;;28.31;37.06
48530;BME280;34927;37.302;-121.982;2022-09-03T02:12:38;100424.0;;;28.29;37.18
48530;BME280;34927;37.302;-121.982;2022-09-03T02:13:43;100425.0;;;28.32;37.09
48530;BME280;34927;37.302;-121.982;2022-09-03T02:14:51;100424.0;;;28.38;37.04
48530;BME280;34927;37.302;-121.982;2022-09-03T02:16:01;100423.0;;;28.29;37.09
48530;BME280;34927;37.302;-121.982;2022-09-03T02:17:08;100419.0;;;28.27;37.17
48530;BME280;34927;37.302;-121.982;2022-09-03T02:18:15;100420.0;;;28.24;37.22
48530;BME280;34927;37.302;-121.982;2022-09-03T02:19:21;100420.0;;;28.21;37.30
48530;BME280;34927;37.302;-121.982;2022-09-03T02:20:28;100421.0;;;28.25;37.28
48530;BME280;34927;37.302;-121.982;2022-09-03T02:21:34;100419.0;;;28.21;37.37
48530;BME280;34927;37.302;-121.982;2022-09-03T02:22:41;100420.0;;;28.22;37.46
48530;BME280;34927;37.302;-121.982;2022-09-03T02:23:47;100420.0;;;28.18;37.55
48530;BME280;34927;37.302;-121.982;2022-09-03T02:24:52;100422.0;;;28.18;37.57
48530;BME280;34927;37.302;-121.982;2022-09-03T02:25:58;100423.0;;;28.16;37.58
48530;BME280;34927;37.302;-121.982;2022-09-03T02:27:02;100424.0;;;28.12;37.59
48530;BME280;34927;37.302;-121.982;2022-09-03T02:28:08;100420.0;;;28.14;37.57
48530;BME280;34927;37.302;-121.982;2022-09-03T02:29:12;100421.0;;;28.09;37.71
48530;BME280;34927;37.302;-121.982;2022-09-03T02:30:17;100420.0;;;28.13;37.71
48530;BME280;34927;37.302;-121.982;2022-09-03T02:31:21;100420.0;;;28.23;37.61
48530;BME280;34927;37.302;-121.982;2022-09-03T02:32:27;100420.0;;;28.14;37.65
48530;BME280;34927;37.302;-121.982;2022-09-03T02:33:34;100422.0;;;28.13;37.81
48530;BME280;34927;37.302;-121.982;2022-09-03T02:34:36;100426.0;;;28.12;37.93
48530;BME280;34927;37.302;-121.982;2022-09-03T02:35:42;100428.0;;;28.04;37.96
48530;BME280;34927;37.302;-121.982;2022-09-03T02:36:47;100429.0;;;28.02;38.08
48530;BME280;34927;37.302;-121.982;2022-09-03T02:37:51;100430.0;;;28.04;38.12
48530;BME280;34927;37.302;-121.982;2022-09-03T02:38:57;100430.0;;;28.01;38.16
48530;BME280;34927;37.302;-121.982;2022-09-03T02:40:02;100430.0;;;27.99;38.15
48530;BME280;34927;37.302;-121.982;2022-09-03T02:41:06;100427.0;;;28.02;38.16
48530;BME280;34927;37.302;-121.982;2022-09-03T02:42:12;100429.0;;;28.02;38.22
48530;BME280;34927;37.302;-121.982;2022-09-03T02:43:18;100428.0;;;28.02;38.18
48530;BME280;34927;37.302;-121.982;2022-09-03T02:44:29;100428.0;;;27.95;38.24
48530;BME280;34927;37.302;-121.982;2022-09-03T02:45:40;100430.0;;;27.96;38.37
48530;BME280;34927;37.302;-121.982;2022-09-03T02:46:51;100432.0;;;27.94;38.35
48530;BME280;34927;37.302;-121.982;2022-09-03T02:47:58;100434.0;;;27.88;38.42
48530;BME280;34927;37.302;-121.982;2022-09-03T02:49:02;100435.0;;;27.90;38.52
48530;BME280;34927;37.302;-121.982;2022-09-03T02:50:07;100437.0;;;27.81;38.68
48530;BME280;34927;37.302;-121.982;2022-09-03T02:51:11;100441.0;;;27.73;38.79
48530;BME280;34927;37.302;-121.982;2022-09-03T02:52:16;100443.0;;;27.74;38.77
48530;BME280;34927;37.302;-121.982;2022-09-03T02:53:21;100447.0;;;27.81;38.75
48530;BME280;34927;37.302;-121.982;2022-09-03T02:54:27;100449.0;;;27.68;38.88
48530;BME280;34927;37.302;-121.982;2022-09-03T02:55:31;100449.0;;;27.66;39.09
48530;BME280;34927;37.302;-121.982;2022-09-03T02:56:37;100448.0;;;27.60;39.20
48530;BME280;34927;37.302;-121.982;2022-09-03T02:57:42;100450.0;;;27.48;39.48
48530;BME280;34927;37.302;-121.982;2022-09-03T02:58:47;100450.0;;;27.45;39.55
48530;BME280;34927;37.302;-121.982;2022-09-03T02:59:51;100451.0;;;27.55;39.51
48530;BME280;34927;37.302;-121.982;2022-09-03T03:00:57;100449.0;;;27.48;39.71
48530;BME280;34927;37.302;-121.982;2022-09-03T03:02:02;100454.0;;;27.39;39.94
48530;BME280;34927;37.302;-121.982;2022-09-03T03:03:07;100459.0;;;27.46;39.89
48530;BME280;34927;37.302;-121.982;2022-09-03T03:04:12;100463.0;;;27.39;39.87
48530;BME280;34927;37.302;-121.982;2022-09-03T03:05:23;100464.0;;;27.36;40.08
48530;BME280;34927;37.302;-121.982;2022-09-03T03:06:26;100467.0;;;27.34;40.20
48530;BME280;34927;37.302;-121.982;2022-09-03T03:07:34;100466.0;;;27.29;40.36
48530;BME280;34927;37.302;-121.982;2022-09-03T03:08:41;100466.0;;;27.30;40.42
48530;BME280;34927;37.302;-121.982;2022-09-03T03:09:46;100467.0;;;27.22;40.60
48530;BME280;34927;37.302;-121.982;2022-09-03T03:10:52;100468.0;;;27.26;40.52
48530;BME280;34927;37.302;-121.982;2022-09-03T03:11:56;100468.0;;;27.24;40.65
48530;BME280;34927;37.302;-121.982;2022-09-03T03:13:01;100472.0;;;27.24;40.81
48530;BME280;34927;37.302;-121.982;2022-09-03T03:14:06;100474.0;;;27.12;41.00
48530;BME280;34927;37.302;-121.982;2022-09-03T03:15:12;100478.0;;;27.13;41.15
48530;BME280;34927;37.302;-121.982;2022-09-03T03:16:17;100478.0;;;27.17;41.07
48530;BME280;34927;37.302;-121.982;2022-09-03T03:17:22;100479.0;;;27.12;41.15
48530;BME280;34927;37.302;-121.982;2022-09-03T03:18:27;100476.0;;;27.17;41.12
48530;BME280;34927;37.302;-121.982;2022-09-03T03:19:31;100474.0;;;27.08;41.20
48530;BME280;34927;37.302;-121.982;2022-09-03T03:20:37;100476.0;;;27.03;41.45
48530;BME280;34927;37.302;-121.982;2022-09-03T03:21:41;100476.0;;;27.03;41.46
48530;BME280;34927;37.302;-121.982;2022-09-03T03:22:47;100478.0;;;27.00;41.52
48530;BME280;34927;37.302;-121.982;2022-09-03T03:23:52;100479.0;;;27.04;41.55
48530;BME280;34927;37.302;-121.982;2022-09-03T03:24:56;100480.0;;;26.97;41.73
48530;BME280;34927;37.302;-121.982;2022-09-03T03:26:02;100478.0;;;26.98;41.68
48530;BME280;34927;37.302;-121.982;2022-09-03T03:27:06;100480.0;;;26.94;41.74
48530;BME280;34927;37.302;-121.982;2022-09-03T03:28:12;100484.0;;;26.89;41.93
48530;BME280;34927;37.302;-121.982;2022-09-03T03:29:17;100486.0;;;26.88;41.85
48530;BME280;34927;37.302;-121.982;2022-09-03T03:30:22;100490.0;;;26.83;42.06
48530;BME280;34927;37.302;-121.982;2022-09-03T03:31:27;100494.0;;;26.80;42.17
48530;BME280;34927;37.302;-121.982;2022-09-03T03:32:31;100496.0;;;26.82;42.13
48530;BME280;34927;37.302;-121.982;2022-09-03T03:33:37;100497.0;;;26.91;41.91
48530;BME280;34927;37.302;-121.982;2022-09-03T03:34:41;100499.0;;;27.00;41.73
48530;BME280;34927;37.302;-121.982;2022-09-03T03:35:46;100504.0;;;27.00;41.68
48530;BME280;34927;37.302;-121.982;2022-09-03T03:37:02;100509.0;;;26.99;41.73
48530;BME280;34927;37.302;-121.982;2022-09-03T03:38:12;100513.0;;;26.96;41.63
48530;BME280;34927;37.302;-121.982;2022-09-03T03:39:30;100515.0;;;27.01;41.60
48530;BME280;34927;37.302;-121.982;2022-09-03T03:40:31;100518.0;;;27.00;41.58
48530;BME280;34927;37.302;-121.982;2022-09-03T03:41:36;100519.0;;;26.98;41.55
48530;BME280;34927;37.302;-121.982;2022-09-03T03:42:42;100519.0;;;27.01;41.57
48530;BME280;34927;37.302;-121.982;2022-09-03T03:43:47;100518.0;;;26.99;41.49
48530;BME280;34927;37.302;-121.982;2022-09-03T03:44:51;100520.0;;;27.14;41.30
48530;BME280;34927;37.302;-121.982;2022-09-03T03:45:57;100524.0;;;27.16;41.94
48530;BME280;34927;37.302;-121.982;2022-09-03T03:47:02;100522.0;;;26.79;42.82
48530;BME280;34927;37.302;-121.982;2022-09-03T03:48:06;100529.0;;;26.96;42.17
48530;BME280;34927;37.302;-121.982;2022-09-03T03:49:12;100529.0;;;26.78;42.76
48530;BME280;34927;37.302;-121.982;2022-09-03T03:50:16;100529.0;;;26.74;42.73
48530;BME280;34927;37.302;-121.982;2022-09-03T03:51:21;100532.0;;;26.86;42.33
48530;BME280;34927;37.302;-121.982;2022-09-03T03:52:27;100532.0;;;26.84;42.03
48530;BME280;34927;37.302;-121.982;2022-09-03T03:53:32;100536.0;;;27.10;41.52
48530;BME280;34927;37.302;-121.982;2022-09-03T03:54:37;100534.0;;;26.95;42.13
48530;BME280;34927;37.302;-121.982;2022-09-03T03:55:42;100532.0;;;26.89;42.23
48530;BME280;34927;37.302;-121.982;2022-09-03T03:56:46;100531.0;;;26.87;42.07
48530;BME280;34927;37.302;-121.982;2022-09-03T03:57:52;100533.0;;;26.92;41.61
48530;BME280;34927;37.302;-121.982;2022-09-03T03:58:58;100530.0;;;26.98;41.51
48530;BME280;34927;37.302;-121.982;2022-09-03T04:00:02;100530.0;;;26.84;42.03
48530;BME280;34927;37.302;-121.982;2022-09-03T04:01:08;100531.0;;;26.76;42.29
48530;BME280;34927;37.302;-121.982;2022-09-03T04:02:11;100531.0;;;26.69;42.17
48530;BME280;34927;37.302;-121.982;2022-09-03T04:03:16;100532.0;;;26.68;42.48
48530;BME280;34927;37.302;-121.982;2022-09-03T04:04:21;100534.0;;;26.69;42.36
48530;BME280;34927;37.302;-121.982;2022-09-03T04:05:26;100532.0;;;26.73;42.09
48530;BME280;34927;37.302;-121.982;2022-09-03T04:06:32;100532.0;;;26.64;42.32
48530;BME280;34927;37.302;-121.982;2022-09-03T04:07:36;100534.0;;;26.69;42.06
48530;BME280;34927;37.302;-121.982;2022-09-03T04:08:43;100532.0;;;26.67;41.95
48530;BME280;34927;37.302;-121.982;2022-09-03T04:09:46;100534.0;;;26.57;41.91
48530;BME280;34927;37.302;-121.982;2022-09-03T04:10:51;100536.0;;;26.61;41.93
48530;BME280;34927;37.302;-121.982;2022-09-03T04:11:56;100538.0;;;26.57;41.95
48530;BME280;34927;37.302;-121.982;2022-09-03T04:13:02;100540.0;;;26.65;41.84
48530;BME280;34927;37.302;-121.982;2022-09-03T04:14:06;100538.0;;;26.50;42.01
48530;BME280;34927;37.302;-121.982;2022-09-03T04:15:12;100538.0;;;26.48;42.13
48530;BME280;34927;37.302;-121.982;2022-09-03T04:16:18;100538.0;;;26.58;41.87
48530;BME280;34927;37.302;-121.982;2022-09-03T04:17:21;100539.0;;;26.49;42.14
48530;BME280;34927;37.302;-121.982;2022-09-03T04:18:26;100540.0;;;26.45;42.47
48530;BME280;34927;37.302;-121.982;2022-09-03T04:19:32;100540.0;;;26.51;42.43
48530;BME280;34927;37.302;-121.982;2022-09-03T04:20:37;100542.0;;;26.55;42.42
48530;BME280;34927;37.302;-121.982;2022-09-03T04:21:42;100545.0;;;26.46;42.47
48530;BME280;34927;37.302;-121.982;2022-09-03T04:22:46;100545.0;;;26.54;42.27
48530;BME280;34927;37.302;-121.982;2022-09-03T04:23:52;100545.0;;;26.58;42.31
48530;BME280;34927;37.302;-121.982;2022-09-03T04:24:56;100549.0;;;26.46;42.46
48530;BME280;34927;37.302;-121.982;2022-09-03T04:26:02;100548.0;;;26.56;42.09
48530;BME280;34927;37.302;-121.982;2022-09-03T04:27:06;100547.0;;;26.52;42.11
48530;BME280;34927;37.302;-121.982;2022-09-03T04:28:11;100549.0;;;26.57;42.03
48530;BME280;34927;37.302;-121.982;2022-09-03T04:29:16;100550.0;;;26.56;41.99
48530;BME280;34927;37.302;-121.982;2022-09-03T04:30:21;100553.0;;;26.49;42.07
48530;BME280;34927;37.302;-121.982;2022-09-03T04:31:27;100557.0;;;26.47;42.27
48530;BME280;34927;37.302;-121.982;2022-09-03T04:32:31;100560.0;;;26.47;42.24
48530;BME280;34927;37.302;-121.982;2022-09-03T04:33:37;100562.0;;;26.49;42.14
48530;BME280;34927;37.302;-121.982;2022-09-03T04:34:41;100565.0;;;26.47;42.21
48530;BME280;34927;37.302;-121.982;2022-09-03T04:35:46;100568.0;;;26.42;42.39
48530;BME280;34927;37.302;-121.982;2022-09-03T04:36:51;100566.0;;;26.37;42.57
48530;BME280;34927;37.302;-121.982;2022-09-03T04:37:57;100568.0;;;26.49;42.28
48530;BME280;34927;37.302;-121.982;2022-09-03T04:39:01;100569.0;;;26.42;42.65
48530;BME280;34927;37.302;-121.982;2022-09-03T04:40:07;100572.0;;;26.35;42.80
48530;BME280;34927;37.302;-121.982;2022-09-03T04:41:14;100574.0;;;26.31;43.07
48530;BME280;34927;37.302;-121.982;2022-09-03T04:42:16;100578.0;;;26.27;43.02
48530;BME280;34927;37.302;-121.982;2022-09-03T04:43:21;100581.0;;;26.27;43.19
48530;BME280;34927;37.302;-121.982;2022-09-03T04:44:27;100584.0;;;26.20;43.45
48530;BME280;34927;37.302;-121.982;2022-09-03T04:45:31;100585.0;;;26.12;43.74
48530;BME280;34927;37.302;-121.982;2022-09-03T04:46:36;100584.0;;;26.17;43.72
48530;BME280;34927;37.302;-121.982;2022-09-03T04:47:42;100584.0;;;26.15;43.74
48530;BME280;34927;37.302;-121.982;2022-09-03T04:48:48;100583.0;;;26.13;43.97
48530;BME280;34927;37.302;-121.982;2022-09-03T04:49:51;100585.0;;;26.14;43.98
48530;BME280;34927;37.302;-121.982;2022-09-03T04:51:02;100585.0;;;26.15;43.82
48530;BME280;34927;37.302;-121.982;2022-09-03T04:52:06;100590.0;;;26.19;43.85
48530;BME280;34927;37.302;-121.982;2022-09-03T04:53:11;100592.0;;;26.19;43.89
48530;BME280;34927;37.302;-121.982;2022-09-03T04:54:16;100597.0;;;26.09;44.01
48530;BME280;34927;37.302;-121.982;2022-09-03T04:55:21;100600.0;;;26.13;43.85
48530;BME280;34927;37.302;-121.982;2022-09-03T04:56:28;100604.0;;;26.02;44.12
48530;BME280;34927;37.302;-121.982;2022-09-03T04:57:33;100608.0;;;26.08;43.92
48530;BME280;34927;37.302;-121.982;2022-09-03T04:58:37;100611.0;;;26.08;43.85
48530;BME280;34927;37.302;-121.982;2022-09-03T04:59:42;100616.0;;;26.04;43.98
48530;BME280;34927;37.302;-121.982;2022-09-03T05:00:46;100618.0;;;26.00;44.13
48530;BME280;34927;37.302;-121.982;2022-09-03T05:01:52;100620.0;;;26.04;44.03
48530;BME280;34927;37.302;-121.982;2022-09-03T05:03:00;100622.0;;;26.10;43.92
48530;BME280;34927;37.302;-121.982;2022-09-03T05:04:02;100624.0;;;26.14;43.66
48530;BME280;34927;37.302;-121.982;2022-09-03T05:05:07;100624.0;;;26.12;43.73
48530;BME280;34927;37.302;-121.982;2022-09-03T05:06:12;100627.0;;;26.08;43.84
48530;BME280;34927;37.302;-121.982;2022-09-03T05:07:16;100625.0;;;26.00;43.97
48530;BME280;34927;37.302;-121.982;2022-09-03T05:08:22;100626.0;;;26.03;43.96
48530;BME280;34927;37.302;-121.982;2022-09-03T05:09:26;100628.0;;;25.99;44.10
48530;BME280;34927;37.302;-121.982;2022-09-03T05:10:31;100631.0;;;26.09;43.95
48530;BME280;34927;37.302;-121.982;2022-09-03T05:11:36;100629.0;;;26.04;44.11
48530;BME280;34927;37.302;-121.982;2022-09-03T05:12:41;100631.0;;;26.02;44.09
48530;BME280;34927;37.302;-121.982;2022-09-03T05:13:47;100628.0;;;26.00;44.11
48530;BME280;34927;37.302;-121.982;2022-09-03T05:14:51;100631.0;;;25.97;44.16
48530;BME280;34927;37.302;-121.982;2022-09-03T05:15:59;100631.0;;;26.23;43.84
48530;BME280;34927;37.302;-121.982;2022-09-03T05:17:01;100629.0;;;26.04;44.11
48530;BME280;34927;37.302;-121.982;2022-09-03T05:18:06;100628.0;;;26.05;44.18
48530;BME280;34927;37.302;-121.982;2022-09-03T05:19:11;100628.0;;;25.95;44.35
48530;BME280;34927;37.302;-121.982;2022-09-03T05:20:17;100627.0;;;26.03;44.17
48530;BME280;34927;37.302;-121.982;2022-09-03T05:21:22;100628.0;;;25.95;44.28
48530;BME280;34927;37.302;-121.982;2022-09-03T05:22:26;100628.0;;;25.91;44.33
48530;BME280;34927;37.302;-121.982;2022-09-03T05:23:34;100630.0;;;26.01;44.04
48530;BME280;34927;37.302;-121.982;2022-09-03T05:24:42;100632.0;;;25.92;44.13
48530;BME280;34927;37.302;-121.982;2022-09-03T05:25:54;100631.0;;;25.92;43.98
48530;BME280;34927;37.302;-121.982;2022-09-03T05:26:56;100629.0;;;26.02;43.63
48530;BME280;34927;37.302;-121.982;2022-09-03T05:28:02;100628.0;;;26.01;43.68
48530;BME280;34927;37.302;-121.982;2022-09-03T05:29:07;100628.0;;;26.00;43.69
48530;BME280;34927;37.302;-121.982;2022-09-03T05:30:12;100629.0;;;25.92;43.73
48530;BME280;34927;37.302;-121.982;2022-09-03T05:31:18;100632.0;;;25.89;43.80
48530;BME280;34927;37.302;-121.982;2022-09-03T05:32:21;100631.0;;;25.86;43.83
48530;BME280;34927;37.302;-121.982;2022-09-03T05:33:26;100629.0;;;25.85;43.71
48530;BME280;34927;37.302;-121.982;2022-09-03T05:34:31;100629.0;;;25.83;43.83
48530;BME280;34927;37.302;-121.982;2022-09-03T05:35:36;100629.0;;;25.97;43.54
48530;BME280;34927;37.302;-121.982;2022-09-03T05:36:41;100627.0;;;25.95;43.49
48530;BME280;34927;37.302;-121.982;2022-09-03T05:37:46;100628.0;;;25.94;43.54
48530;BME280;34927;37.302;-121.982;2022-09-03T05:38:52;100632.0;;;25.85;43.69
48530;BME280;34927;37.302;-121.982;2022-09-03T05:39:56;100635.0;;;25.85;43.55
48530;BME280;34927;37.302;-121.982;2022-09-03T05:41:03;100639.0;;;25.97;43.19
48530;BME280;34927;37.302;-121.982;2022-09-03T05:42:06;100641.0;;;26.01;42.93
48530;BME280;34927;37.302;-121.982;2022-09-03T05:43:11;100647.0;;;25.91;43.23
48530;BME280;34927;37.302;-121.982;2022-09-03T05:44:16;100649.0;;;26.00;43.07
48530;BME280;34927;37.302;-121.982;2022-09-03T05:45:22;100651.0;;;25.88;43.28
48530;BME280;34927;37.302;-121.982;2022-09-03T05:46:28;100652.0;;;25.81;43.43
48530;BME280;34927;37.302;-121.982;2022-09-03T05:47:31;100654.0;;;25.79;43.42
48530;BME280;34927;37.302;-121.982;2022-09-03T05:48:38;100654.0;;;25.72;43.57